Terminal Aerodrome Forecast
Issued by NWS

Home | Current Version | Previous Version | Text Only | Print | Product List | Glossary On
Versions: 1 2 3 4 5 6 7 8 9 10 11 12
000
FTUS43 KGRR 031100
TAFBTL
TAF
KBTL 031140Z 0312/0412 21008KT P6SM SCT100
     FM031500 21012G22KT P6SM BKN090
     FM040800 21012G22KT 5SM -SHRA VCTS OVC040CB=

USA.gov is the U.S. government's official web portal to all federal, state and local government web resources and services.